Gunter AFS, Alabama
Current Conditions -  °F | °C
As of 3:58 PM on Sunday 25 Jan 2015 (Local Time) from KMXF Reporting Station
Scattered Clouds Scattered Clouds  
Wind Chill: 63°   Ceiling: Unl
Heat Index: 63°   Visibility: 10mi
Dew Point: 36°   Wind: 15mph
Humidity: 37%   Direction: 210°SSW
Pressure: 29.77"   Gusts: 23mph
Location:  32.4072°N, 86.2486°W
Report Text: KMXF 252158Z AUTO 21013G20KT 170V240 10SM SCT110 17/02 A2977 RMK AO2 SLP084 T01710021
Loading
Personal Weather Stations






























Interactive Weather Map New forecast layout! Learn more

10-Day Weather Forecast

Advertisements
Track Severe Weather on mobile